sensor_id;sensor_type;location;lat;lon;timestamp;P1;durP1;ratioP1;P2;durP2;ratioP2
36301;SDS011;22334;53.022;18.606;2023-02-15T00:00:45;133.17;;;50.93;;
36301;SDS011;22334;53.022;18.606;2023-02-15T00:04:27;126.13;;;50.63;;
36301;SDS011;22334;53.022;18.606;2023-02-15T00:08:02;149.40;;;55.47;;
36301;SDS011;22334;53.022;18.606;2023-02-15T00:11:47;151.43;;;56.83;;
36301;SDS011;22334;53.022;18.606;2023-02-15T00:15:17;140.87;;;54.37;;
36301;SDS011;22334;53.022;18.606;2023-02-15T00:18:41;154.30;;;61.53;;
36301;SDS011;22334;53.022;18.606;2023-02-15T00:22:09;154.63;;;57.27;;
36301;SDS011;22334;53.022;18.606;2023-02-15T00:25:02;165.80;;;57.73;;
36301;SDS011;22334;53.022;18.606;2023-02-15T00:28:01;175.00;;;60.70;;
36301;SDS011;22334;53.022;18.606;2023-02-15T00:31:07;162.02;;;56.40;;
36301;SDS011;22334;53.022;18.606;2023-02-15T00:34:17;167.43;;;59.72;;
36301;SDS011;22334;53.022;18.606;2023-02-15T00:37:32;149.20;;;58.17;;
36301;SDS011;22334;53.022;18.606;2023-02-15T00:40:25;178.43;;;60.53;;
36301;SDS011;22334;53.022;18.606;2023-02-15T00:43:37;155.98;;;56.78;;
36301;SDS011;22334;53.022;18.606;2023-02-15T00:46:49;147.80;;;59.20;;
36301;SDS011;22334;53.022;18.606;2023-02-15T00:49:39;160.27;;;57.70;;
36301;SDS011;22334;53.022;18.606;2023-02-15T00:52:07;150.33;;;56.63;;
36301;SDS011;22334;53.022;18.606;2023-02-15T00:54:54;159.05;;;55.75;;
36301;SDS011;22334;53.022;18.606;2023-02-15T00:57:24;150.93;;;57.20;;
36301;SDS011;22334;53.022;18.606;2023-02-15T00:59:50;138.53;;;58.10;;
36301;SDS011;22334;53.022;18.606;2023-02-15T01:02:36;146.30;;;57.00;;
36301;SDS011;22334;53.022;18.606;2023-02-15T01:05:03;159.13;;;58.07;;
36301;SDS011;22334;53.022;18.606;2023-02-15T01:07:53;176.30;;;58.80;;
36301;SDS011;22334;53.022;18.606;2023-02-15T01:10:39;156.90;;;56.23;;
36301;SDS011;22334;53.022;18.606;2023-02-15T01:13:28;172.73;;;58.13;;
36301;SDS011;22334;53.022;18.606;2023-02-15T01:16:10;172.23;;;57.47;;
36301;SDS011;22334;53.022;18.606;2023-02-15T01:18:38;224.13;;;63.20;;
36301;SDS011;22334;53.022;18.606;2023-02-15T01:21:13;167.60;;;57.90;;
36301;SDS011;22334;53.022;18.606;2023-02-15T01:23:42;165.90;;;57.10;;
36301;SDS011;22334;53.022;18.606;2023-02-15T01:26:33;176.90;;;55.88;;
36301;SDS011;22334;53.022;18.606;2023-02-15T01:29:28;130.27;;;49.85;;
36301;SDS011;22334;53.022;18.606;2023-02-15T01:32:46;132.65;;;45.60;;
36301;SDS011;22334;53.022;18.606;2023-02-15T01:35:48;157.93;;;47.22;;
36301;SDS011;22334;53.022;18.606;2023-02-15T01:39:26;166.63;;;46.50;;
36301;SDS011;22334;53.022;18.606;2023-02-15T02:03:59;145.40;;;44.77;;
36301;SDS011;22334;53.022;18.606;2023-02-15T02:25:31;107.83;;;39.93;;
36301;SDS011;22334;53.022;18.606;2023-02-15T02:40:40;125.03;;;37.00;;
36301;SDS011;22334;53.022;18.606;2023-02-15T02:46:17;134.00;;;37.40;;
36301;SDS011;22334;53.022;18.606;2023-02-15T02:53:23;119.47;;;38.53;;
36301;SDS011;22334;53.022;18.606;2023-02-15T02:57:07;133.53;;;40.17;;
36301;SDS011;22334;53.022;18.606;2023-02-15T03:00:38;107.57;;;37.70;;
36301;SDS011;22334;53.022;18.606;2023-02-15T03:04:22;100.93;;;37.93;;
36301;SDS011;22334;53.022;18.606;2023-02-15T03:07:32;114.97;;;37.17;;
36301;SDS011;22334;53.022;18.606;2023-02-15T03:11:04;116.97;;;37.73;;
36301;SDS011;22334;53.022;18.606;2023-02-15T03:48:40;227.87;;;42.77;;
36301;SDS011;22334;53.022;18.606;2023-02-15T03:55:26;138.47;;;34.17;;
36301;SDS011;22334;53.022;18.606;2023-02-15T03:58:52;135.47;;;34.50;;
36301;SDS011;22334;53.022;18.606;2023-02-15T04:05:57;122.07;;;32.13;;
36301;SDS011;22334;53.022;18.606;2023-02-15T04:08:50;112.77;;;32.37;;
36301;SDS011;22334;53.022;18.606;2023-02-15T04:11:56;107.23;;;32.60;;
36301;SDS011;22334;53.022;18.606;2023-02-15T04:14:46;115.93;;;32.83;;
36301;SDS011;22334;53.022;18.606;2023-02-15T04:18:11;111.17;;;31.97;;
36301;SDS011;22334;53.022;18.606;2023-02-15T04:21:41;102.23;;;33.60;;
36301;SDS011;22334;53.022;18.606;2023-02-15T04:25:23;99.37;;;33.33;;
36301;SDS011;22334;53.022;18.606;2023-02-15T04:28:08;92.83;;;32.83;;
36301;SDS011;22334;53.022;18.606;2023-02-15T04:31:37;93.82;;;34.72;;
36301;SDS011;22334;53.022;18.606;2023-02-15T04:35:17;111.93;;;35.43;;
36301;SDS011;22334;53.022;18.606;2023-02-15T04:38:56;90.90;;;33.30;;
36301;SDS011;22334;53.022;18.606;2023-02-15T04:42:35;87.50;;;34.50;;
36301;SDS011;22334;53.022;18.606;2023-02-15T04:45:01;98.97;;;36.10;;
36301;SDS011;22334;53.022;18.606;2023-02-15T04:47:27;105.93;;;37.05;;
36301;SDS011;22334;53.022;18.606;2023-02-15T04:49:52;94.30;;;34.67;;
36301;SDS011;22334;53.022;18.606;2023-02-15T04:52:18;109.80;;;37.95;;
36301;SDS011;22334;53.022;18.606;2023-02-15T04:54:44;109.07;;;36.83;;
36301;SDS011;22334;53.022;18.606;2023-02-15T04:57:09;106.18;;;37.30;;
36301;SDS011;22334;53.022;18.606;2023-02-15T04:59:35;108.53;;;39.28;;
36301;SDS011;22334;53.022;18.606;2023-02-15T05:02:00;96.07;;;35.83;;
36301;SDS011;22334;53.022;18.606;2023-02-15T05:04:27;90.67;;;35.53;;
36301;SDS011;22334;53.022;18.606;2023-02-15T05:06:54;106.82;;;36.63;;
36301;SDS011;22334;53.022;18.606;2023-02-15T05:09:20;95.53;;;34.77;;
36301;SDS011;22334;53.022;18.606;2023-02-15T05:11:45;97.57;;;36.83;;
36301;SDS011;22334;53.022;18.606;2023-02-15T05:14:11;100.78;;;42.45;;
36301;SDS011;22334;53.022;18.606;2023-02-15T05:16:36;90.50;;;37.83;;
36301;SDS011;22334;53.022;18.606;2023-02-15T05:19:02;92.73;;;37.23;;
36301;SDS011;22334;53.022;18.606;2023-02-15T05:21:28;91.97;;;36.47;;
36301;SDS011;22334;53.022;18.606;2023-02-15T05:23:53;88.80;;;35.87;;
36301;SDS011;22334;53.022;18.606;2023-02-15T05:26:21;95.03;;;34.88;;
36301;SDS011;22334;53.022;18.606;2023-02-15T05:29:06;93.10;;;36.63;;
36301;SDS011;22334;53.022;18.606;2023-02-15T05:31:33;96.57;;;36.80;;
36301;SDS011;22334;53.022;18.606;2023-02-15T05:33:59;100.85;;;39.75;;
36301;SDS011;22334;53.022;18.606;2023-02-15T05:36:24;101.40;;;39.75;;
36301;SDS011;22334;53.022;18.606;2023-02-15T05:38:50;99.18;;;38.60;;
36301;SDS011;22334;53.022;18.606;2023-02-15T05:41:15;92.90;;;37.80;;
36301;SDS011;22334;53.022;18.606;2023-02-15T05:43:41;94.90;;;38.43;;
36301;SDS011;22334;53.022;18.606;2023-02-15T05:46:06;102.45;;;38.63;;
36301;SDS011;22334;53.022;18.606;2023-02-15T05:48:32;97.88;;;37.05;;
36301;SDS011;22334;53.022;18.606;2023-02-15T05:53:34;94.85;;;37.72;;
36301;SDS011;22334;53.022;18.606;2023-02-15T05:56:03;91.45;;;38.20;;
36301;SDS011;22334;53.022;18.606;2023-02-15T05:58:30;102.30;;;39.23;;
36301;SDS011;22334;53.022;18.606;2023-02-15T06:00:57;101.47;;;39.75;;
36301;SDS011;22334;53.022;18.606;2023-02-15T06:03:23;99.72;;;39.70;;
36301;SDS011;22334;53.022;18.606;2023-02-15T06:05:50;100.07;;;38.95;;
36301;SDS011;22334;53.022;18.606;2023-02-15T06:08:16;99.28;;;39.95;;
36301;SDS011;22334;53.022;18.606;2023-02-15T06:10:42;100.63;;;39.77;;
36301;SDS011;22334;53.022;18.606;2023-02-15T06:13:07;99.97;;;40.17;;
36301;SDS011;22334;53.022;18.606;2023-02-15T06:15:32;102.18;;;40.97;;
36301;SDS011;22334;53.022;18.606;2023-02-15T06:17:58;109.60;;;42.40;;
36301;SDS011;22334;53.022;18.606;2023-02-15T06:20:23;116.33;;;46.90;;
36301;SDS011;22334;53.022;18.606;2023-02-15T06:22:49;108.88;;;43.05;;
36301;SDS011;22334;53.022;18.606;2023-02-15T06:25:14;117.40;;;45.40;;
36301;SDS011;22334;53.022;18.606;2023-02-15T06:27:43;111.00;;;43.53;;
36301;SDS011;22334;53.022;18.606;2023-02-15T06:30:09;117.28;;;45.60;;
36301;SDS011;22334;53.022;18.606;2023-02-15T06:32:35;119.13;;;44.17;;
36301;SDS011;22334;53.022;18.606;2023-02-15T06:35:01;117.85;;;45.00;;
36301;SDS011;22334;53.022;18.606;2023-02-15T06:37:26;111.18;;;43.28;;
36301;SDS011;22334;53.022;18.606;2023-02-15T06:39:52;116.82;;;44.72;;
36301;SDS011;22334;53.022;18.606;2023-02-15T06:42:18;117.65;;;44.83;;
36301;SDS011;22334;53.022;18.606;2023-02-15T06:44:44;122.03;;;45.43;;
36301;SDS011;22334;53.022;18.606;2023-02-15T06:47:10;112.65;;;44.63;;
36301;SDS011;22334;53.022;18.606;2023-02-15T06:49:36;114.30;;;44.40;;
36301;SDS011;22334;53.022;18.606;2023-02-15T06:52:01;122.60;;;46.30;;
36301;SDS011;22334;53.022;18.606;2023-02-15T06:54:27;121.60;;;47.47;;
36301;SDS011;22334;53.022;18.606;2023-02-15T06:56:53;117.75;;;47.53;;
36301;SDS011;22334;53.022;18.606;2023-02-15T06:59:18;123.68;;;44.83;;
36301;SDS011;22334;53.022;18.606;2023-02-15T07:01:44;125.28;;;46.50;;
36301;SDS011;22334;53.022;18.606;2023-02-15T07:04:09;116.57;;;44.90;;
36301;SDS011;22334;53.022;18.606;2023-02-15T07:06:35;122.93;;;43.35;;
36301;SDS011;22334;53.022;18.606;2023-02-15T07:09:00;113.25;;;45.47;;
36301;SDS011;22334;53.022;18.606;2023-02-15T07:11:30;116.10;;;45.22;;
36301;SDS011;22334;53.022;18.606;2023-02-15T07:14:16;104.75;;;44.90;;
36301;SDS011;22334;53.022;18.606;2023-02-15T07:16:43;118.70;;;48.00;;
36301;SDS011;22334;53.022;18.606;2023-02-15T07:19:10;116.90;;;44.60;;
36301;SDS011;22334;53.022;18.606;2023-02-15T07:21:35;108.85;;;42.42;;
36301;SDS011;22334;53.022;18.606;2023-02-15T07:24:01;108.85;;;44.38;;
36301;SDS011;22334;53.022;18.606;2023-02-15T07:26:27;104.43;;;41.83;;
36301;SDS011;22334;53.022;18.606;2023-02-15T07:28:53;103.10;;;42.67;;
36301;SDS011;22334;53.022;18.606;2023-02-15T07:31:18;100.83;;;42.60;;
36301;SDS011;22334;53.022;18.606;2023-02-15T07:33:44;92.22;;;42.05;;
36301;SDS011;22334;53.022;18.606;2023-02-15T07:49:39;93.03;;;40.47;;
36301;SDS011;22334;53.022;18.606;2023-02-15T07:55:15;88.95;;;39.45;;
36301;SDS011;22334;53.022;18.606;2023-02-15T07:57:42;92.47;;;39.83;;
36301;SDS011;22334;53.022;18.606;2023-02-15T08:00:09;82.63;;;38.40;;
36301;SDS011;22334;53.022;18.606;2023-02-15T08:02:39;86.68;;;38.90;;
36301;SDS011;22334;53.022;18.606;2023-02-15T08:05:44;84.75;;;39.20;;
36301;SDS011;22334;53.022;18.606;2023-02-15T08:08:12;82.75;;;36.65;;
36301;SDS011;22334;53.022;18.606;2023-02-15T08:13:57;84.70;;;38.17;;
36301;SDS011;22334;53.022;18.606;2023-02-15T08:16:31;78.20;;;37.63;;
36301;SDS011;22334;53.022;18.606;2023-02-15T08:19:16;73.22;;;34.95;;
36301;SDS011;22334;53.022;18.606;2023-02-15T08:21:49;81.72;;;38.30;;
36301;SDS011;22334;53.022;18.606;2023-02-15T08:24:18;83.13;;;38.33;;
36301;SDS011;22334;53.022;18.606;2023-02-15T08:26:45;85.68;;;38.25;;
36301;SDS011;22334;53.022;18.606;2023-02-15T08:29:13;75.82;;;36.60;;
36301;SDS011;22334;53.022;18.606;2023-02-15T08:31:41;64.38;;;34.20;;
36301;SDS011;22334;53.022;18.606;2023-02-15T08:34:07;70.50;;;35.92;;
36301;SDS011;22334;53.022;18.606;2023-02-15T08:36:33;72.68;;;33.17;;
36301;SDS011;22334;53.022;18.606;2023-02-15T08:39:00;69.30;;;30.85;;
36301;SDS011;22334;53.022;18.606;2023-02-15T08:41:28;65.97;;;31.30;;
36301;SDS011;22334;53.022;18.606;2023-02-15T08:43:56;62.70;;;31.55;;
36301;SDS011;22334;53.022;18.606;2023-02-15T08:46:26;68.13;;;32.00;;
36301;SDS011;22334;53.022;18.606;2023-02-15T08:48:56;66.53;;;32.15;;
36301;SDS011;22334;53.022;18.606;2023-02-15T08:51:25;71.60;;;33.78;;
36301;SDS011;22334;53.022;18.606;2023-02-15T08:53:52;70.80;;;33.13;;
36301;SDS011;22334;53.022;18.606;2023-02-15T08:56:20;72.75;;;32.13;;
36301;SDS011;22334;53.022;18.606;2023-02-15T08:58:47;60.35;;;33.15;;
36301;SDS011;22334;53.022;18.606;2023-02-15T09:01:13;59.00;;;31.55;;
36301;SDS011;22334;53.022;18.606;2023-02-15T09:03:48;58.80;;;30.42;;
36301;SDS011;22334;53.022;18.606;2023-02-15T09:06:20;63.45;;;31.17;;
36301;SDS011;22334;53.022;18.606;2023-02-15T09:08:47;54.15;;;29.15;;
36301;SDS011;22334;53.022;18.606;2023-02-15T09:11:14;60.20;;;30.17;;
36301;SDS011;22334;53.022;18.606;2023-02-15T09:13:47;58.70;;;29.50;;
36301;SDS011;22334;53.022;18.606;2023-02-15T09:16:14;49.95;;;26.05;;
36301;SDS011;22334;53.022;18.606;2023-02-15T09:18:42;43.10;;;24.20;;
36301;SDS011;22334;53.022;18.606;2023-02-15T09:21:08;46.17;;;24.17;;
36301;SDS011;22334;53.022;18.606;2023-02-15T09:23:41;49.70;;;23.80;;
36301;SDS011;22334;53.022;18.606;2023-02-15T09:26:14;40.55;;;24.13;;
36301;SDS011;22334;53.022;18.606;2023-02-15T09:28:42;43.55;;;24.92;;
36301;SDS011;22334;53.022;18.606;2023-02-15T09:31:26;44.40;;;23.70;;
36301;SDS011;22334;53.022;18.606;2023-02-15T09:33:53;39.13;;;23.65;;
36301;SDS011;22334;53.022;18.606;2023-02-15T09:36:23;45.08;;;23.77;;
36301;SDS011;22334;53.022;18.606;2023-02-15T09:38:54;46.22;;;24.48;;
36301;SDS011;22334;53.022;18.606;2023-02-15T09:49:49;48.42;;;23.27;;
36301;SDS011;22334;53.022;18.606;2023-02-15T10:01:11;50.75;;;24.02;;
36301;SDS011;22334;53.022;18.606;2023-02-15T10:07:00;46.08;;;24.08;;
36301;SDS011;22334;53.022;18.606;2023-02-15T10:23:19;44.00;;;22.05;;
36301;SDS011;22334;53.022;18.606;2023-02-15T10:28:50;41.10;;;23.38;;
36301;SDS011;22334;53.022;18.606;2023-02-15T10:34:22;48.90;;;24.35;;
36301;SDS011;22334;53.022;18.606;2023-02-15T10:42:11;52.60;;;25.67;;
36301;SDS011;22334;53.022;18.606;2023-02-15T10:50:17;53.03;;;25.20;;
36301;SDS011;22334;53.022;18.606;2023-02-15T10:58:40;49.92;;;26.27;;
36301;SDS011;22334;53.022;18.606;2023-02-15T11:06:19;51.72;;;28.35;;
36301;SDS011;22334;53.022;18.606;2023-02-15T11:08:47;55.55;;;29.52;;
36301;SDS011;22334;53.022;18.606;2023-02-15T11:11:21;60.38;;;29.73;;
36301;SDS011;22334;53.022;18.606;2023-02-15T11:13:53;71.50;;;30.17;;
36301;SDS011;22334;53.022;18.606;2023-02-15T11:16:40;61.75;;;29.65;;
36301;SDS011;22334;53.022;18.606;2023-02-15T11:21:39;55.70;;;29.35;;
36301;SDS011;22334;53.022;18.606;2023-02-15T11:24:19;54.45;;;29.25;;
36301;SDS011;22334;53.022;18.606;2023-02-15T11:26:54;58.38;;;30.05;;
36301;SDS011;22334;53.022;18.606;2023-02-15T11:29:28;59.83;;;29.75;;
36301;SDS011;22334;53.022;18.606;2023-02-15T11:31:58;58.55;;;31.63;;
36301;SDS011;22334;53.022;18.606;2023-02-15T11:36:54;58.60;;;29.85;;
36301;SDS011;22334;53.022;18.606;2023-02-15T11:39:21;62.20;;;29.35;;
36301;SDS011;22334;53.022;18.606;2023-02-15T11:41:48;62.33;;;32.08;;
36301;SDS011;22334;53.022;18.606;2023-02-15T11:45:19;61.95;;;31.70;;
36301;SDS011;22334;53.022;18.606;2023-02-15T11:49:42;68.20;;;30.67;;
36301;SDS011;22334;53.022;18.606;2023-02-15T11:52:10;62.92;;;30.33;;
36301;SDS011;22334;53.022;18.606;2023-02-15T11:54:39;58.47;;;31.45;;
36301;SDS011;22334;53.022;18.606;2023-02-15T11:59:55;66.38;;;33.30;;
36301;SDS011;22334;53.022;18.606;2023-02-15T12:02:24;55.15;;;29.88;;
36301;SDS011;22334;53.022;18.606;2023-02-15T12:04:53;59.25;;;29.92;;
36301;SDS011;22334;53.022;18.606;2023-02-15T12:07:23;64.85;;;29.90;;
36301;SDS011;22334;53.022;18.606;2023-02-15T12:10:03;65.80;;;33.58;;
36301;SDS011;22334;53.022;18.606;2023-02-15T12:12:37;61.05;;;28.10;;
36301;SDS011;22334;53.022;18.606;2023-02-15T12:15:04;60.88;;;28.60;;
36301;SDS011;22334;53.022;18.606;2023-02-15T12:17:35;69.50;;;27.58;;
36301;SDS011;22334;53.022;18.606;2023-02-15T12:20:04;50.15;;;27.80;;
36301;SDS011;22334;53.022;18.606;2023-02-15T12:22:50;43.38;;;25.33;;
36301;SDS011;22334;53.022;18.606;2023-02-15T12:27:49;51.00;;;26.63;;
36301;SDS011;22334;53.022;18.606;2023-02-15T12:32:57;48.05;;;25.27;;
36301;SDS011;22334;53.022;18.606;2023-02-15T12:35:29;44.65;;;24.83;;
36301;SDS011;22334;53.022;18.606;2023-02-15T12:38:21;45.55;;;25.67;;
36301;SDS011;22334;53.022;18.606;2023-02-15T12:40:41;51.58;;;25.25;;
36301;SDS011;22334;53.022;18.606;2023-02-15T12:43:50;46.67;;;24.85;;
36301;SDS011;22334;53.022;18.606;2023-02-15T12:46:19;45.20;;;23.95;;
36301;SDS011;22334;53.022;18.606;2023-02-15T12:48:46;54.42;;;26.17;;
36301;SDS011;22334;53.022;18.606;2023-02-15T12:51:14;48.08;;;24.38;;
36301;SDS011;22334;53.022;18.606;2023-02-15T12:53:40;49.58;;;24.02;;
36301;SDS011;22334;53.022;18.606;2023-02-15T12:56:07;46.05;;;23.52;;
36301;SDS011;22334;53.022;18.606;2023-02-15T12:58:35;50.58;;;25.17;;
36301;SDS011;22334;53.022;18.606;2023-02-15T13:01:15;47.90;;;24.60;;
36301;SDS011;22334;53.022;18.606;2023-02-15T13:06:23;53.20;;;23.77;;
36301;SDS011;22334;53.022;18.606;2023-02-15T13:08:53;48.63;;;23.40;;
36301;SDS011;22334;53.022;18.606;2023-02-15T13:12:26;42.03;;;22.67;;
36301;SDS011;22334;53.022;18.606;2023-02-15T13:15:02;42.95;;;22.63;;
36301;SDS011;22334;53.022;18.606;2023-02-15T13:17:30;44.88;;;23.63;;
36301;SDS011;22334;53.022;18.606;2023-02-15T13:20:04;41.03;;;22.67;;
36301;SDS011;22334;53.022;18.606;2023-02-15T13:22:42;52.85;;;23.90;;
36301;SDS011;22334;53.022;18.606;2023-02-15T13:25:21;41.65;;;23.75;;
36301;SDS011;22334;53.022;18.606;2023-02-15T13:27:55;44.88;;;23.90;;
36301;SDS011;22334;53.022;18.606;2023-02-15T13:30:24;44.40;;;23.83;;
36301;SDS011;22334;53.022;18.606;2023-02-15T13:32:53;55.85;;;24.65;;
36301;SDS011;22334;53.022;18.606;2023-02-15T13:35:35;51.55;;;25.40;;
36301;SDS011;22334;53.022;18.606;2023-02-15T13:41:04;51.17;;;25.50;;
36301;SDS011;22334;53.022;18.606;2023-02-15T14:04:53;55.17;;;26.27;;
36301;SDS011;22334;53.022;18.606;2023-02-15T14:08:13;53.75;;;27.15;;
36301;SDS011;22334;53.022;18.606;2023-02-15T14:11:02;49.13;;;26.77;;
36301;SDS011;22334;53.022;18.606;2023-02-15T14:16:39;51.88;;;24.95;;
36301;SDS011;22334;53.022;18.606;2023-02-15T14:22:10;52.85;;;26.48;;
36301;SDS011;22334;53.022;18.606;2023-02-15T14:25:20;54.55;;;27.10;;
36301;SDS011;22334;53.022;18.606;2023-02-15T14:30:48;54.75;;;25.58;;
36301;SDS011;22334;53.022;18.606;2023-02-15T14:35:55;60.75;;;27.98;;
36301;SDS011;22334;53.022;18.606;2023-02-15T14:38:44;53.55;;;26.77;;
36301;SDS011;22334;53.022;18.606;2023-02-15T14:41:53;48.83;;;23.52;;
36301;SDS011;22334;53.022;18.606;2023-02-15T14:44:33;54.00;;;26.00;;
36301;SDS011;22334;53.022;18.606;2023-02-15T14:47:10;51.22;;;24.17;;
36301;SDS011;22334;53.022;18.606;2023-02-15T14:49:51;50.03;;;26.52;;
36301;SDS011;22334;53.022;18.606;2023-02-15T14:52:18;48.35;;;26.52;;
36301;SDS011;22334;53.022;18.606;2023-02-15T14:55:04;50.30;;;25.85;;
36301;SDS011;22334;53.022;18.606;2023-02-15T14:57:33;50.60;;;26.27;;
36301;SDS011;22334;53.022;18.606;2023-02-15T15:00:02;70.55;;;27.80;;
36301;SDS011;22334;53.022;18.606;2023-02-15T15:02:47;62.85;;;27.15;;
36301;SDS011;22334;53.022;18.606;2023-02-15T15:08:01;54.10;;;27.23;;
36301;SDS011;22334;53.022;18.606;2023-02-15T15:13:55;56.58;;;27.90;;
36301;SDS011;22334;53.022;18.606;2023-02-15T15:17:10;59.35;;;26.98;;
36301;SDS011;22334;53.022;18.606;2023-02-15T15:22:20;56.08;;;27.58;;
36301;SDS011;22334;53.022;18.606;2023-02-15T15:25:08;55.35;;;26.63;;
36301;SDS011;22334;53.022;18.606;2023-02-15T15:28:00;54.00;;;25.65;;
36301;SDS011;22334;53.022;18.606;2023-02-15T15:32:59;57.60;;;28.35;;
36301;SDS011;22334;53.022;18.606;2023-02-15T15:45:14;59.30;;;29.98;;
36301;SDS011;22334;53.022;18.606;2023-02-15T15:51:32;64.75;;;29.58;;
36301;SDS011;22334;53.022;18.606;2023-02-15T15:53:59;60.45;;;29.88;;
36301;SDS011;22334;53.022;18.606;2023-02-15T15:56:28;61.92;;;30.77;;
36301;SDS011;22334;53.022;18.606;2023-02-15T15:59:17;63.28;;;31.40;;
36301;SDS011;22334;53.022;18.606;2023-02-15T16:02:03;63.65;;;29.33;;
36301;SDS011;22334;53.022;18.606;2023-02-15T16:04:46;67.28;;;31.75;;
36301;SDS011;22334;53.022;18.606;2023-02-15T16:07:36;64.88;;;30.90;;
36301;SDS011;22334;53.022;18.606;2023-02-15T16:10:19;61.22;;;28.33;;
36301;SDS011;22334;53.022;18.606;2023-02-15T16:13:18;60.70;;;30.10;;
36301;SDS011;22334;53.022;18.606;2023-02-15T16:19:50;65.18;;;29.92;;
36301;SDS011;22334;53.022;18.606;2023-02-15T16:28:30;67.57;;;30.75;;
36301;SDS011;22334;53.022;18.606;2023-02-15T16:31:07;66.20;;;31.15;;
36301;SDS011;22334;53.022;18.606;2023-02-15T16:33:39;66.50;;;31.40;;
36301;SDS011;22334;53.022;18.606;2023-02-15T16:36:26;72.22;;;31.52;;
36301;SDS011;22334;53.022;18.606;2023-02-15T16:39:16;69.45;;;31.98;;
36301;SDS011;22334;53.022;18.606;2023-02-15T16:42:06;64.22;;;30.33;;
36301;SDS011;22334;53.022;18.606;2023-02-15T16:44:40;64.80;;;30.52;;
36301;SDS011;22334;53.022;18.606;2023-02-15T16:47:44;66.70;;;31.48;;
36301;SDS011;22334;53.022;18.606;2023-02-15T16:50:33;61.28;;;31.25;;
36301;SDS011;22334;53.022;18.606;2023-02-15T16:53:13;66.80;;;31.35;;
36301;SDS011;22334;53.022;18.606;2023-02-15T16:55:43;63.88;;;31.45;;
36301;SDS011;22334;53.022;18.606;2023-02-15T16:58:21;67.25;;;31.90;;
36301;SDS011;22334;53.022;18.606;2023-02-15T17:00:58;66.10;;;32.15;;
36301;SDS011;22334;53.022;18.606;2023-02-15T17:03:37;63.20;;;31.35;;
36301;SDS011;22334;53.022;18.606;2023-02-15T17:06:26;71.65;;;31.85;;
36301;SDS011;22334;53.022;18.606;2023-02-15T17:09:16;74.03;;;32.58;;
36301;SDS011;22334;53.022;18.606;2023-02-15T17:11:52;72.55;;;31.73;;
36301;SDS011;22334;53.022;18.606;2023-02-15T17:14:28;65.88;;;30.58;;
36301;SDS011;22334;53.022;18.606;2023-02-15T17:17:05;70.80;;;30.58;;
36301;SDS011;22334;53.022;18.606;2023-02-15T17:19:47;68.13;;;31.15;;
36301;SDS011;22334;53.022;18.606;2023-02-15T17:25:18;69.53;;;30.17;;
36301;SDS011;22334;53.022;18.606;2023-02-15T17:27:51;66.60;;;29.13;;
36301;SDS011;22334;53.022;18.606;2023-02-15T17:30:23;63.97;;;29.10;;
36301;SDS011;22334;53.022;18.606;2023-02-15T17:32:54;71.07;;;30.35;;
36301;SDS011;22334;53.022;18.606;2023-02-15T17:35:26;72.10;;;30.63;;
36301;SDS011;22334;53.022;18.606;2023-02-15T17:38:02;66.30;;;30.48;;
36301;SDS011;22334;53.022;18.606;2023-02-15T17:40:34;74.05;;;32.03;;
36301;SDS011;22334;53.022;18.606;2023-02-15T17:43:02;64.93;;;30.40;;
36301;SDS011;22334;53.022;18.606;2023-02-15T17:45:33;63.22;;;28.52;;
36301;SDS011;22334;53.022;18.606;2023-02-15T17:48:01;66.85;;;30.38;;
36301;SDS011;22334;53.022;18.606;2023-02-15T17:50:31;65.57;;;30.10;;
36301;SDS011;22334;53.022;18.606;2023-02-15T17:52:59;67.97;;;29.80;;
36301;SDS011;22334;53.022;18.606;2023-02-15T17:55:26;66.50;;;30.70;;
36301;SDS011;22334;53.022;18.606;2023-02-15T17:58:06;61.63;;;29.42;;
36301;SDS011;22334;53.022;18.606;2023-02-15T18:00:33;76.78;;;33.17;;
36301;SDS011;22334;53.022;18.606;2023-02-15T18:03:19;71.28;;;31.35;;
36301;SDS011;22334;53.022;18.606;2023-02-15T18:06:06;73.97;;;32.88;;
36301;SDS011;22334;53.022;18.606;2023-02-15T18:08:50;76.80;;;30.65;;
36301;SDS011;22334;53.022;18.606;2023-02-15T18:11:34;69.20;;;29.63;;
36301;SDS011;22334;53.022;18.606;2023-02-15T18:14:03;71.13;;;30.35;;
36301;SDS011;22334;53.022;18.606;2023-02-15T18:16:42;76.07;;;32.88;;
36301;SDS011;22334;53.022;18.606;2023-02-15T18:19:12;69.75;;;32.10;;
36301;SDS011;22334;53.022;18.606;2023-02-15T18:21:48;66.47;;;30.13;;
36301;SDS011;22334;53.022;18.606;2023-02-15T18:24:20;72.35;;;31.90;;
36301;SDS011;22334;53.022;18.606;2023-02-15T18:26:48;64.68;;;30.75;;
36301;SDS011;22334;53.022;18.606;2023-02-15T18:29:14;66.47;;;31.83;;
36301;SDS011;22334;53.022;18.606;2023-02-15T18:31:40;70.22;;;31.83;;
36301;SDS011;22334;53.022;18.606;2023-02-15T18:34:08;66.88;;;30.60;;
36301;SDS011;22334;53.022;18.606;2023-02-15T18:36:49;73.68;;;31.50;;
36301;SDS011;22334;53.022;18.606;2023-02-15T18:42:17;65.80;;;29.80;;
36301;SDS011;22334;53.022;18.606;2023-02-15T18:44:48;67.28;;;30.83;;
36301;SDS011;22334;53.022;18.606;2023-02-15T18:47:15;68.32;;;30.42;;
36301;SDS011;22334;53.022;18.606;2023-02-15T18:49:41;67.57;;;30.73;;
36301;SDS011;22334;53.022;18.606;2023-02-15T18:52:09;64.43;;;29.38;;
36301;SDS011;22334;53.022;18.606;2023-02-15T18:54:40;64.95;;;29.35;;
36301;SDS011;22334;53.022;18.606;2023-02-15T18:57:08;61.20;;;29.52;;
36301;SDS011;22334;53.022;18.606;2023-02-15T18:59:35;64.43;;;30.27;;
36301;SDS011;22334;53.022;18.606;2023-02-15T19:02:00;73.60;;;30.50;;
36301;SDS011;22334;53.022;18.606;2023-02-15T19:04:26;67.90;;;31.23;;
36301;SDS011;22334;53.022;18.606;2023-02-15T19:06:51;66.55;;;30.02;;
36301;SDS011;22334;53.022;18.606;2023-02-15T19:09:18;63.80;;;30.38;;
36301;SDS011;22334;53.022;18.606;2023-02-15T19:11:50;66.25;;;30.00;;
36301;SDS011;22334;53.022;18.606;2023-02-15T19:14:25;71.97;;;29.60;;
36301;SDS011;22334;53.022;18.606;2023-02-15T19:16:53;71.63;;;30.27;;
36301;SDS011;22334;53.022;18.606;2023-02-15T19:19:19;66.85;;;29.65;;
36301;SDS011;22334;53.022;18.606;2023-02-15T19:21:47;71.93;;;30.25;;
36301;SDS011;22334;53.022;18.606;2023-02-15T19:24:53;70.57;;;31.33;;
36301;SDS011;22334;53.022;18.606;2023-02-15T19:27:41;67.05;;;30.58;;
36301;SDS011;22334;53.022;18.606;2023-02-15T19:30:23;72.68;;;31.33;;
36301;SDS011;22334;53.022;18.606;2023-02-15T19:33:21;72.40;;;32.53;;
36301;SDS011;22334;53.022;18.606;2023-02-15T19:36:23;76.00;;;31.88;;
36301;SDS011;22334;53.022;18.606;2023-02-15T19:38:50;72.80;;;31.20;;
36301;SDS011;22334;53.022;18.606;2023-02-15T19:41:31;75.60;;;32.42;;
36301;SDS011;22334;53.022;18.606;2023-02-15T19:43:57;72.57;;;30.92;;
36301;SDS011;22334;53.022;18.606;2023-02-15T19:46:23;75.90;;;31.60;;
36301;SDS011;22334;53.022;18.606;2023-02-15T19:48:50;71.75;;;31.75;;
36301;SDS011;22334;53.022;18.606;2023-02-15T19:51:16;81.80;;;31.73;;